Pagina principale
METAR-TAF:

METAR-TAF

Aeroporti :

Masvingo, Zimbabwe

latitudine: 20-04S, longitudine: 030-52E, altezza: 1094 m

Osservazione

Il bollettino è stato emesso 18 ore e 16 minuti fa, alle 10:00 UTC
Vento 8 kt da est/sud-est
Temperature 19°C
Umidità 60%
Pressione 1027 hPa
Visibilità 10 km o più
Nuvoloso ad un'altezza di 3300 ft

METAR: FVMV 261000Z 12008KT 9999 BKN033 19/11 Q1027

Ora: 06:16 (04:16 UTC)


TAF: mancante

Osservazioni e previsioni meteorologiche di più di 4000 aeroporti (messaggi METAR e TAF).

Le stazioni disponibili sono rappresentate dai dischi gialli e rossi sulla carta.

Puntare il mouse per vedere il nome della stazione.

Clicca sopra per visualizzare le osservazioni e previsioni meteorologiche.

Per cambiare la mappa : fare clic sui pulsanti verdi con una croce nera per ingrandire, il pulsante verde con un trattino per diminuire, o sulla freccia verde per le mappe adiacenti.


METAR-TAF: